Main page
METAR-TAF:

METAR-TAF

Airports :

Bergerac Dordogne Périgord Airport

Bergerac, France

latitude: 44-49N, longitude: 000-31E, elevation: 51 m

Current weather observation

The report was made 24 minutes ago, at 20:30 UTC
Wind 3 kt from the West
Temperature 19°C
Humidity 78%
Pressure 1018 hPa
Visibility 10 km or more
Scattered clouds at a height of 4900 ft

METAR: LFBE 282030Z AUTO 26003KT 9999 SCT049 19/15 Q1018

Time: 22:54 (20:54 UTC)

Forecast

The report was made 9 hours and 54 minutes ago, at 11:00 UTC
Forecast valid from 28 at 12 UTC to 29 at 12 UTC
Wind 2 kt from variable directions
Visibility 10 km or more
Broken clouds at a height of 4000 ft
Temporary
from 28 at 12 UTC to 28 at 14 UTC
Few clouds at a height of 4500 ft, Towering cumulus.
light rain showers
Becoming
from 28 at 14 UTC to 28 at 16 UTC
Wind 5 kt from the West
Visibility 10 km or more
no clouds below 1500 m and no cumulonimbus

TAF: LFBE 281100Z 2812/2912 VRB02KT 9999 BKN040 TEMPO 2812/2814 -SHRA FEW045TCU BECMG 2814/2816 28005KT CAVOK

Weather observations and forecasts of more than 4000 airports (METAR and TAF reports).

The available stations are represented by yellow and red dots on the map.

Hover mouse over dot to see the name of the station.

Then click to see weather observations and forecasts.

To change the map : click on the green buttons with a black cross to zoom in, on the green button with a dash to zoom out, or on the green arrows for adjacent maps.


METAR-TAF: